Time;durP1;ratioP1;P1;durP2;ratioP2;P2;SDS_P1;SDS_P2;PMS_P1;PMS_P2;Temp;Humidity;BMP_temperature;BMP_pressure;BME280_temperature;BME280_humidity;BME280_pressure;Samples;Min_cycle;Max_cycle;Signal;HPM_P1;HPM_P2
2023/07/19 00:00:43;;;;;;;4.53;2.92;;;17.30;99.90;;;;;;5096880;28;20070;-77
2023/07/19 00:03:09;;;;;;;6.53;2.92;;;17.30;99.90;;;;;;5090419;28;20032;-77
2023/07/19 00:05:35;;;;;;;5.05;2.90;;;17.30;99.90;;;;;;5113136;28;20120;-79
2023/07/19 00:08:04;;;;;;;5.63;3.03;;;17.30;99.90;;;;;;5109007;28;20412;-78
2023/07/19 00:10:31;;;;;;;7.72;2.90;;;17.30;99.90;;;;;;5111042;28;20049;-78
2023/07/19 00:12:57;;;;;;;5.70;2.97;;;17.20;99.90;;;;;;5095771;28;20043;-77
2023/07/19 00:15:24;;;;;;;5.78;3.42;;;17.30;99.90;;;;;;5113191;28;20063;-78
2023/07/19 00:17:49;;;;;;;6.43;2.78;;;17.30;99.90;;;;;;5107207;28;20039;-77
2023/07/19 00:20:15;;;;;;;9.15;3.05;;;17.40;99.90;;;;;;5098525;28;20044;-78
2023/07/19 00:22:41;;;;;;;6.18;2.92;;;17.30;99.90;;;;;;5114459;28;20052;-77
2023/07/19 00:25:09;;;;;;;6.85;3.08;;;17.30;99.90;;;;;;5117192;28;20043;-78
2023/07/19 00:27:35;;;;;;;5.70;3.13;;;17.30;99.90;;;;;;5095810;28;20543;-77
2023/07/19 00:30:01;;;;;;;6.63;3.15;;;17.30;99.90;;;;;;5113646;28;20032;-78
2023/07/19 00:32:26;;;;;;;7.63;3.13;;;17.30;99.90;;;;;;5115863;28;20128;-77
2023/07/19 00:34:52;;;;;;;7.18;3.10;;;17.30;99.90;;;;;;5098314;28;20577;-78
2023/07/19 00:37:17;;;;;;;9.25;3.38;;;17.30;99.90;;;;;;5098294;28;20124;-78
2023/07/19 00:39:43;;;;;;;7.03;3.10;;;17.30;99.90;;;;;;5112733;28;20151;-78
2023/07/19 00:42:09;;;;;;;6.63;3.80;;;17.30;99.90;;;;;;5113261;28;20715;-76
2023/07/19 00:44:34;;;;;;;8.68;3.30;;;17.30;99.90;;;;;;5095743;28;20071;-76
2023/07/19 00:47:02;;;;;;;9.15;3.10;;;17.30;99.90;;;;;;5113016;28;20032;-77
2023/07/19 00:49:32;;;;;;;6.93;3.47;;;17.30;99.90;;;;;;5092472;28;20047;-78
2023/07/19 00:52:02;;;;;;;6.75;3.30;;;17.30;99.90;;;;;;5097652;28;20416;-77
2023/07/19 00:54:29;;;;;;;8.65;3.13;;;17.30;99.90;;;;;;5114932;28;20048;-78
2023/07/19 00:56:55;;;;;;;8.45;3.75;;;17.30;99.90;;;;;;5115393;28;20040;-77
2023/07/19 00:59:26;;;;;;;7.13;3.67;;;17.30;99.90;;;;;;5093982;28;20048;-77
2023/07/19 01:01:51;;;;;;;9.43;4.00;;;17.30;99.90;;;;;;5094469;28;20043;-77
2023/07/19 01:04:17;;;;;;;7.45;3.88;;;17.30;99.90;;;;;;5096480;28;20051;-78
2023/07/19 01:06:43;;;;;;;10.35;3.75;;;17.30;99.90;;;;;;5110650;28;20035;-78
2023/07/19 01:09:14;;;;;;;7.25;3.72;;;17.30;99.90;;;;;;5113675;27;20047;-79
2023/07/19 01:11:40;;;;;;;5.43;3.80;;;17.30;99.90;;;;;;5093954;28;20035;-78
2023/07/19 01:14:06;;;;;;;8.45;4.00;;;17.30;99.90;;;;;;5092276;28;20485;-77
2023/07/19 01:16:32;;;;;;;11.80;3.80;;;17.30;99.90;;;;;;5110112;28;20093;-77
2023/07/19 01:18:58;;;;;;;6.47;4.00;;;17.30;99.90;;;;;;5115157;28;20498;-76
2023/07/19 01:21:24;;;;;;;6.63;3.88;;;17.30;99.90;;;;;;5094999;28;20055;-78
2023/07/19 01:23:50;;;;;;;6.10;3.42;;;17.30;99.90;;;;;;5115091;28;20036;-77
2023/07/19 01:26:16;;;;;;;6.40;3.53;;;17.30;99.90;;;;;;5111999;28;20389;-78
2023/07/19 01:28:42;;;;;;;8.25;4.18;;;17.30;99.90;;;;;;5077432;28;20044;-77
2023/07/19 01:31:11;;;;;;;5.03;3.65;;;17.30;99.90;;;;;;5112034;28;20410;-78
2023/07/19 01:33:37;;;;;;;10.63;4.43;;;17.30;99.90;;;;;;5115514;28;20398;-77
2023/07/19 01:36:03;;;;;;;5.95;3.75;;;17.30;99.90;;;;;;5112104;28;20047;-77
2023/07/19 01:38:29;;;;;;;10.18;4.10;;;17.30;99.90;;;;;;5117232;28;20061;-78
2023/07/19 01:40:55;;;;;;;7.63;3.72;;;17.30;99.90;;;;;;5110242;28;20112;-77
2023/07/19 01:43:20;;;;;;;7.25;4.50;;;17.20;99.90;;;;;;5095799;28;20039;-78
2023/07/19 01:45:46;;;;;;;7.47;3.92;;;17.30;99.90;;;;;;5096075;28;20040;-77
2023/07/19 01:48:12;;;;;;;7.07;4.60;;;17.30;99.90;;;;;;5114272;28;20035;-77
2023/07/19 01:50:38;;;;;;;6.60;4.88;;;17.20;99.90;;;;;;5098755;28;20054;-77
2023/07/19 01:53:03;;;;;;;8.07;4.13;;;17.30;99.90;;;;;;5103475;28;20488;-77
2023/07/19 01:55:30;;;;;;;11.43;4.43;;;17.30;99.90;;;;;;5063874;28;20096;-77
2023/07/19 01:57:56;;;;;;;8.03;4.70;;;17.20;99.90;;;;;;5104498;28;20035;-77
2023/07/19 02:00:22;;;;;;;8.57;4.00;;;17.30;99.90;;;;;;5095116;28;20384;-77
2023/07/19 02:02:47;;;;;;;12.57;4.82;;;17.20;99.90;;;;;;5108295;28;20113;-78
2023/07/19 02:05:13;;;;;;;7.50;4.47;;;17.20;99.90;;;;;;5105000;28;20039;-77
2023/07/19 02:07:42;;;;;;;9.80;4.25;;;17.20;99.90;;;;;;5090095;28;20444;-78
2023/07/19 02:10:08;;;;;;;8.65;4.80;;;17.20;99.90;;;;;;5092749;28;20048;-77
2023/07/19 02:12:36;;;;;;;11.98;4.60;;;17.20;99.90;;;;;;5092439;28;20051;-78
2023/07/19 02:15:02;;;;;;;;;;;17.20;99.90;;;;;;5090458;28;20569;-77
2023/07/19 02:17:28;;;;;;;6.70;4.53;;;17.20;99.90;;;;;;5080666;28;20007;-78
2023/07/19 02:19:53;;;;;;;9.38;4.45;;;17.20;99.90;;;;;;5090237;28;20041;-79
2023/07/19 02:22:19;;;;;;;8.73;4.60;;;17.10;99.90;;;;;;5078886;28;20127;-77
2023/07/19 02:24:44;;;;;;;8.35;4.35;;;17.20;99.90;;;;;;5079580;28;20068;-78
2023/07/19 02:27:11;;;;;;;9.85;4.50;;;17.20;99.90;;;;;;5088630;28;20040;-78
2023/07/19 02:29:36;;;;;;;7.35;4.22;;;17.10;99.90;;;;;;5093152;28;20064;-77
2023/07/19 02:32:04;;;;;;;6.60;3.95;;;17.20;99.90;;;;;;5091417;28;20078;-78
2023/07/19 02:34:29;;;;;;;8.10;4.05;;;17.20;99.90;;;;;;5090710;28;20608;-78
2023/07/19 02:36:57;;;;;;;10.55;4.43;;;17.10;99.90;;;;;;5090451;28;20077;-78
2023/07/19 02:39:26;;;;;;;7.78;4.20;;;17.10;99.90;;;;;;5089083;28;20051;-77
2023/07/19 02:41:52;;;;;;;6.68;3.75;;;17.10;99.90;;;;;;5083988;28;20393;-77
2023/07/19 02:44:17;;;;;;;6.78;4.07;;;17.10;99.90;;;;;;5084128;28;20043;-76
2023/07/19 02:46:43;;;;;;;9.80;4.75;;;17.10;99.90;;;;;;5089742;28;20088;-77
2023/07/19 02:49:11;;;;;;;9.30;3.95;;;17.20;99.90;;;;;;5094425;28;20036;-78
2023/07/19 02:51:39;;;;;;;8.88;4.50;;;17.00;99.90;;;;;;5090591;28;20040;-77
2023/07/19 02:54:07;;;;;;;;;;;17.00;99.90;;;;;;5094115;28;20043;-76
2023/07/19 02:56:33;;;;;;;8.93;5.32;;;17.10;99.90;;;;;;5090570;28;19920;-77
2023/07/19 02:58:58;;;;;;;8.30;4.10;;;17.20;99.90;;;;;;5090498;28;20047;-77
2023/07/19 03:01:24;;;;;;;10.02;4.68;;;17.00;99.90;;;;;;5085309;28;20462;-78
2023/07/19 03:03:51;;;;;;;5.68;3.83;;;17.00;99.90;;;;;;5089360;28;20634;-77
2023/07/19 03:06:17;;;;;;;14.83;4.03;;;17.00;99.90;;;;;;5091170;28;20076;-77
2023/07/19 03:08:44;;;;;;;9.80;4.43;;;17.00;99.90;;;;;;5106201;28;20047;-77
2023/07/19 03:11:09;;;;;;;8.43;4.03;;;17.00;99.90;;;;;;5091695;28;20035;-78
2023/07/19 03:13:35;;;;;;;9.98;4.07;;;17.00;99.90;;;;;;5074122;28;20118;-78
2023/07/19 03:16:01;;;;;;;9.70;4.30;;;17.00;99.90;;;;;;5110154;28;20096;-77
2023/07/19 03:18:27;;;;;;;6.97;4.38;;;17.00;99.90;;;;;;5113965;28;20035;-77
2023/07/19 03:21:02;;;;;;;8.90;4.78;;;17.00;99.90;;;;;;5110669;28;20047;-78
2023/07/19 03:23:32;;;;;;;9.13;4.22;;;17.00;99.90;;;;;;5115022;28;20510;-77
2023/07/19 03:25:58;;;;;;;9.70;4.80;;;17.00;99.90;;;;;;5116213;28;20035;-78
2023/07/19 03:28:29;;;;;;;10.30;5.00;;;17.00;99.90;;;;;;5115762;28;20054;-78
2023/07/19 03:30:58;;;;;;;8.98;4.93;;;17.00;99.90;;;;;;5109423;28;20040;-78
2023/07/19 03:33:25;;;;;;;9.95;4.32;;;17.10;99.90;;;;;;5110527;28;20071;-77
2023/07/19 03:35:51;;;;;;;11.05;4.90;;;17.00;99.90;;;;;;5112066;28;20092;-77
2023/07/19 03:38:21;;;;;;;10.55;4.60;;;17.00;99.90;;;;;;5095547;28;20040;-77
2023/07/19 03:40:47;;;;;;;10.00;5.43;;;17.00;99.90;;;;;;5094285;28;20031;-79
2023/07/19 03:43:12;;;;;;;9.63;4.90;;;16.90;99.90;;;;;;5110163;28;20055;-77
2023/07/19 03:45:41;;;;;;;9.60;5.75;;;17.00;99.90;;;;;;5108585;28;20040;-77
2023/07/19 03:48:07;;;;;;;8.43;5.20;;;16.90;99.90;;;;;;5097565;28;20128;-78
2023/07/19 03:50:33;;;;;;;7.57;5.13;;;16.90;99.90;;;;;;5109597;28;20048;-77
2023/07/19 03:52:58;;;;;;;9.88;5.35;;;16.90;99.90;;;;;;5115618;28;20544;-78
2023/07/19 03:55:24;;;;;;;11.60;5.22;;;16.90;99.90;;;;;;5092736;28;20039;-78
2023/07/19 03:57:51;;;;;;;11.65;5.30;;;16.90;99.90;;;;;;5119153;28;20477;-78
2023/07/19 04:00:17;;;;;;;10.30;5.55;;;17.10;99.90;;;;;;5084349;28;20042;-77
2023/07/19 04:02:43;;;;;;;12.20;5.85;;;16.90;99.90;;;;;;5100269;28;20043;-78
2023/07/19 04:05:09;;;;;;;10.35;6.00;;;16.90;99.90;;;;;;5100030;28;20043;-77
2023/07/19 04:07:34;;;;;;;8.93;5.32;;;16.90;99.90;;;;;;5115798;28;20110;-77
2023/07/19 04:10:00;;;;;;;8.63;6.10;;;16.90;99.90;;;;;;5099502;28;20556;-78
2023/07/19 04:12:29;;;;;;;11.85;6.13;;;16.90;99.90;;;;;;5096097;28;20112;-77
2023/07/19 04:14:56;;;;;;;9.88;6.07;;;16.90;99.90;;;;;;5112978;28;20052;-77
2023/07/19 04:17:22;;;;;;;9.23;5.90;;;16.90;99.90;;;;;;5098948;28;20039;-77
2023/07/19 04:19:47;;;;;;;8.90;5.43;;;16.90;99.90;;;;;;5109961;28;20043;-77
2023/07/19 04:22:13;;;;;;;13.70;5.70;;;16.90;99.90;;;;;;5119930;28;20046;-79
2023/07/19 04:24:39;;;;;;;14.32;7.05;;;16.90;99.90;;;;;;5102537;28;20039;-77
2023/07/19 04:27:06;;;;;;;9.82;5.53;;;16.90;99.90;;;;;;5095614;28;20040;-77
2023/07/19 04:29:34;;;;;;;13.00;6.80;;;16.90;99.90;;;;;;5105530;28;20432;-79
2023/07/19 04:32:03;;;;;;;8.73;5.47;;;16.90;99.90;;;;;;5115581;28;20130;-78
2023/07/19 04:34:29;;;;;;;9.55;5.97;;;16.90;99.90;;;;;;5114273;28;20048;-78
2023/07/19 04:36:55;;;;;;;9.27;5.68;;;17.00;99.90;;;;;;5111643;28;20051;-77
2023/07/19 04:39:21;;;;;;;9.88;6.28;;;17.00;99.90;;;;;;5097316;28;20390;-77
2023/07/19 04:41:47;;;;;;;9.30;6.20;;;17.00;99.90;;;;;;5108600;28;20043;-77
2023/07/19 04:44:13;;;;;;;10.40;5.93;;;17.10;99.90;;;;;;5094690;28;20459;-78
2023/07/19 04:46:42;;;;;;;11.30;5.97;;;17.00;99.90;;;;;;5099434;28;20078;-77
2023/07/19 04:49:08;;;;;;;13.32;5.55;;;17.00;99.90;;;;;;5080263;28;20043;-77
2023/07/19 04:51:33;;;;;;;12.68;6.32;;;17.00;99.90;;;;;;5096547;28;20495;-78
2023/07/19 04:54:04;;;;;;;10.10;5.32;;;17.00;99.90;;;;;;5115374;28;20381;-78
2023/07/19 04:56:30;;;;;;;10.48;5.55;;;17.10;99.90;;;;;;5095467;28;20048;-76
2023/07/19 04:58:59;;;;;;;8.35;6.00;;;17.10;99.90;;;;;;5099145;28;20146;-76
2023/07/19 05:01:25;;;;;;;9.38;5.82;;;17.10;99.90;;;;;;5116287;28;20047;-78
2023/07/19 05:03:54;;;;;;;8.32;5.38;;;17.10;99.90;;;;;;5080207;28;20044;-77
2023/07/19 05:06:23;;;;;;;9.25;5.15;;;17.10;99.90;;;;;;5110705;28;20072;-77
2023/07/19 05:08:51;;;;;;;12.00;5.30;;;17.10;99.90;;;;;;5114406;28;20049;-78
2023/07/19 05:11:19;;;;;;;;;;;17.10;99.90;;;;;;5116536;28;20035;-77
2023/07/19 05:13:45;;;;;;;11.27;5.53;;;17.10;99.90;;;;;;5088588;28;19964;-77
2023/07/19 05:16:11;;;;;;;7.90;4.65;;;17.00;99.90;;;;;;5095139;28;20184;-77
2023/07/19 05:18:37;;;;;;;11.45;5.03;;;17.10;99.90;;;;;;5098068;28;20485;-78
2023/07/19 05:21:02;;;;;;;8.65;4.57;;;17.10;99.90;;;;;;5114500;28;20054;-77
2023/07/19 05:23:28;;;;;;;12.18;5.05;;;17.10;99.90;;;;;;5074581;28;20097;-76
2023/07/19 05:25:57;;;;;;;7.13;4.32;;;17.10;99.90;;;;;;5083975;28;20048;-77
2023/07/19 05:28:23;;;;;;;9.80;4.45;;;17.10;99.90;;;;;;5098498;28;20126;-76
2023/07/19 05:30:48;;;;;;;9.32;4.70;;;17.10;99.90;;;;;;5076397;28;20103;-77
2023/07/19 05:33:15;;;;;;;8.90;4.53;;;17.10;99.90;;;;;;5097812;28;20396;-77
2023/07/19 05:35:42;;;;;;;7.47;4.10;;;17.20;99.90;;;;;;5111756;28;20048;-76
2023/07/19 05:38:08;;;;;;;6.22;4.65;;;17.20;99.90;;;;;;5092341;28;20043;-76
2023/07/19 05:40:34;;;;;;;7.35;4.43;;;17.20;99.90;;;;;;5113794;28;20092;-77
2023/07/19 05:43:00;;;;;;;8.48;4.03;;;17.20;99.90;;;;;;5096008;28;20374;-78
2023/07/19 05:45:28;;;;;;;13.32;4.38;;;17.20;99.90;;;;;;5096767;28;20032;-78
2023/07/19 05:47:54;;;;;;;8.30;4.28;;;17.20;99.90;;;;;;5114857;28;20042;-78
2023/07/19 05:50:20;;;;;;;10.60;4.80;;;17.20;99.90;;;;;;5097054;28;20035;-77
2023/07/19 05:52:46;;;;;;;7.50;4.53;;;17.20;99.90;;;;;;5102470;28;20127;-77
2023/07/19 05:55:15;;;;;;;6.72;4.38;;;17.20;99.90;;;;;;5111313;28;20074;-75
2023/07/19 05:57:41;;;;;;;11.45;4.90;;;17.30;99.90;;;;;;5114544;28;20040;-77
2023/07/19 06:00:31;;;;;;;9.05;4.53;;;17.20;99.90;;;;;;5089351;28;20108;-76
2023/07/19 06:02:57;;;;;;;6.72;3.85;;;17.20;99.90;;;;;;5109411;28;20036;-77
2023/07/19 06:05:24;;;;;;;10.63;4.25;;;17.20;99.90;;;;;;5112609;28;20042;-77
2023/07/19 06:07:53;;;;;;;9.57;4.43;;;17.20;99.90;;;;;;5091852;28;20055;-76
2023/07/19 06:10:19;;;;;;;8.32;4.22;;;17.30;99.90;;;;;;5096772;28;20093;-76
2023/07/19 06:12:46;;;;;;;9.15;3.80;;;17.30;99.90;;;;;;5104235;28;20039;-77
2023/07/19 06:15:14;;;;;;;9.57;4.15;;;17.20;99.90;;;;;;5112907;28;20465;-77
2023/07/19 06:17:40;;;;;;;8.93;3.70;;;17.20;99.90;;;;;;5079581;28;20068;-76
2023/07/19 06:20:13;;;;;;;5.32;2.80;;;17.20;99.90;;;;;;5092247;28;20477;-77
2023/07/19 06:22:39;;;;;;;9.38;3.20;;;17.10;99.90;;;;;;5115323;28;20039;-77
2023/07/19 06:25:06;;;;;;;7.32;2.60;;;17.10;99.90;;;;;;5115575;28;20039;-77
2023/07/19 06:27:32;;;;;;;6.90;2.95;;;17.00;99.90;;;;;;5116670;28;20047;-79
2023/07/19 06:29:59;;;;;;;6.15;2.70;;;17.00;99.90;;;;;;5091013;28;20469;-77
2023/07/19 06:32:25;;;;;;;9.55;3.08;;;17.00;99.90;;;;;;5098646;28;20035;-78
2023/07/19 06:34:54;;;;;;;7.80;3.25;;;17.00;99.90;;;;;;5099693;28;20042;-78
2023/07/19 06:37:20;;;;;;;8.30;2.70;;;17.00;99.90;;;;;;5110966;28;20421;-79
2023/07/19 06:39:49;;;;;;;7.45;2.70;;;17.00;99.90;;;;;;5095852;28;20035;-78
2023/07/19 06:42:17;;;;;;;8.77;2.67;;;17.10;99.90;;;;;;5117321;28;20100;-76
2023/07/19 06:44:43;;;;;;;7.25;2.80;;;17.00;99.90;;;;;;5116181;28;20052;-76
2023/07/19 06:47:09;;;;;;;6.50;2.80;;;17.00;99.90;;;;;;5116674;28;20477;-77
2023/07/19 06:49:38;;;;;;;7.38;2.78;;;17.00;99.90;;;;;;5100439;28;20055;-78
2023/07/19 06:52:05;;;;;;;10.15;2.78;;;17.00;99.90;;;;;;5093296;28;20043;-78
2023/07/19 06:54:31;;;;;;;6.40;2.65;;;17.10;99.90;;;;;;5079273;28;20386;-76
2023/07/19 06:56:57;;;;;;;8.75;2.90;;;17.20;99.90;;;;;;5093884;28;20047;-79
2023/07/19 06:59:23;;;;;;;11.60;3.30;;;17.20;99.90;;;;;;5107611;28;20405;-77
2023/07/19 07:01:51;;;;;;;11.93;3.70;;;17.30;99.90;;;;;;5113373;28;20104;-77
2023/07/19 07:04:16;;;;;;;8.93;2.70;;;17.30;99.90;;;;;;5117435;28;20378;-79
2023/07/19 07:06:43;;;;;;;9.18;3.22;;;17.40;99.90;;;;;;5117299;28;20040;-77
2023/07/19 07:09:18;;;;;;;10.10;3.13;;;17.40;99.90;;;;;;5115134;28;20047;-78
2023/07/19 07:11:44;;;;;;;9.85;3.63;;;17.50;99.90;;;;;;5092576;28;20046;-76
2023/07/19 07:14:13;;;;;;;9.77;3.75;;;17.50;99.90;;;;;;5092748;28;20032;-80
2023/07/19 07:16:39;;;;;;;14.55;3.63;;;17.80;99.90;;;;;;5109334;28;20043;-77
2023/07/19 07:19:05;;;;;;;14.50;4.07;;;17.70;99.90;;;;;;5114083;28;20050;-76
2023/07/19 07:21:31;;;;;;;9.82;3.33;;;17.70;99.90;;;;;;5093094;28;20047;-79
2023/07/19 07:23:57;;;;;;;8.60;3.10;;;17.80;99.90;;;;;;5090915;28;20048;-77
2023/07/19 07:26:23;;;;;;;11.43;3.47;;;17.90;99.90;;;;;;5092706;28;20051;-80
2023/07/19 07:28:48;;;;;;;9.98;3.10;;;18.00;99.90;;;;;;5081444;28;20068;-77
2023/07/19 07:31:14;;;;;;;9.63;3.45;;;18.00;99.90;;;;;;5094559;28;20088;-77
2023/07/19 07:33:40;;;;;;;7.75;3.00;;;18.00;99.90;;;;;;5112217;28;20077;-77
2023/07/19 07:36:06;;;;;;;10.68;3.10;;;18.00;99.90;;;;;;5092902;28;20044;-77
2023/07/19 07:38:32;;;;;;;7.65;2.80;;;18.00;99.90;;;;;;5095273;28;20038;-77
2023/07/19 07:41:04;;;;;;;10.18;2.90;;;18.10;99.90;;;;;;5088821;28;20481;-76
2023/07/19 07:43:31;;;;;;;9.77;2.83;;;18.10;99.90;;;;;;5093633;28;20047;-77
2023/07/19 07:45:57;;;;;;;8.20;2.78;;;18.20;99.90;;;;;;5111640;28;20040;-77
2023/07/19 07:48:23;;;;;;;7.18;2.70;;;18.30;99.90;;;;;;5107281;28;20032;-78
2023/07/19 07:50:51;;;;;;;7.55;2.40;;;18.30;99.90;;;;;;5092818;28;20043;-77
2023/07/19 07:53:18;;;;;;;7.75;2.80;;;18.40;99.90;;;;;;5094144;28;20366;-77
2023/07/19 07:55:44;;;;;;;9.27;2.80;;;18.40;99.90;;;;;;5075197;28;20055;-77
2023/07/19 07:58:10;;;;;;;9.70;2.90;;;18.50;99.90;;;;;;5103500;28;20401;-77
2023/07/19 08:00:36;;;;;;;9.00;2.72;;;18.50;99.90;;;;;;5109447;28;20047;-78
2023/07/19 08:03:04;;;;;;;8.13;2.33;;;18.50;99.90;;;;;;5096361;28;20067;-78
2023/07/19 08:05:33;;;;;;;7.32;2.33;;;18.60;99.90;;;;;;5087966;28;20057;-78
2023/07/19 08:07:59;;;;;;;10.10;3.05;;;18.60;99.90;;;;;;5098280;28;20417;-78
2023/07/19 08:10:25;;;;;;;8.10;2.22;;;18.70;99.90;;;;;;5073772;28;20046;-78
2023/07/19 08:12:50;;;;;;;7.57;2.30;;;18.70;99.90;;;;;;5110066;28;20043;-76
2023/07/19 08:15:16;;;;;;;8.40;2.38;;;18.70;99.90;;;;;;5113103;28;20036;-78
2023/07/19 08:17:42;;;;;;;6.32;2.00;;;18.80;99.90;;;;;;5097199;28;20040;-78
2023/07/19 08:20:09;;;;;;;10.55;2.40;;;18.90;99.90;;;;;;5090623;28;20420;-76
2023/07/19 08:22:37;;;;;;;9.43;2.45;;;18.80;99.90;;;;;;5106683;28;20040;-76
2023/07/19 08:25:07;;;;;;;8.65;2.05;;;19.00;99.90;;;;;;5109726;28;20176;-77
2023/07/19 08:27:32;;;;;;;6.50;2.20;;;19.20;99.90;;;;;;5113646;28;20036;-78
2023/07/19 08:30:00;;;;;;;11.70;2.90;;;19.40;99.90;;;;;;5095215;28;20062;-78
2023/07/19 08:32:26;;;;;;;8.18;2.50;;;19.60;99.90;;;;;;5093232;28;20117;-78
2023/07/19 08:34:51;;;;;;;8.50;2.55;;;19.90;99.90;;;;;;5099543;28;20078;-77
2023/07/19 08:37:20;;;;;;;6.22;2.47;;;19.90;99.90;;;;;;5110047;28;20051;-78
2023/07/19 08:39:46;;;;;;;7.15;2.08;;;19.90;99.90;;;;;;5102736;28;20040;-77
2023/07/19 08:42:12;;;;;;;5.47;2.00;;;19.80;99.90;;;;;;5096689;28;20047;-77
2023/07/19 08:44:38;;;;;;;6.90;2.30;;;19.80;99.90;;;;;;5095357;28;20123;-77
2023/07/19 08:47:06;;;;;;;6.82;2.03;;;19.90;99.90;;;;;;5115335;28;20457;-77
2023/07/19 08:49:34;;;;;;;8.48;2.35;;;20.10;99.90;;;;;;5110964;28;20044;-77
2023/07/19 08:52:02;;;;;;;5.25;1.83;;;20.30;99.90;;;;;;5115886;28;20169;-77
2023/07/19 08:54:28;;;;;;;4.45;1.80;;;20.40;99.90;;;;;;5113111;28;20047;-78
2023/07/19 08:56:54;;;;;;;4.57;1.85;;;20.50;99.90;;;;;;5118563;28;20512;-77
2023/07/19 08:59:21;;;;;;;5.68;1.77;;;20.60;99.90;;;;;;5114097;28;20036;-78
2023/07/19 09:01:46;;;;;;;5.13;1.92;;;20.60;99.90;;;;;;5111749;28;20071;-78
2023/07/19 09:04:12;;;;;;;6.55;1.80;;;20.40;99.90;;;;;;5108276;28;20069;-78
2023/07/19 09:06:41;;;;;;;5.45;1.90;;;20.30;99.90;;;;;;5102064;28;20044;-77
2023/07/19 09:09:10;;;;;;;7.97;2.35;;;20.00;99.90;;;;;;5089759;28;20118;-78
2023/07/19 09:11:36;;;;;;;4.90;1.83;;;19.90;99.90;;;;;;5095161;28;20456;-80
2023/07/19 09:14:02;;;;;;;7.35;2.10;;;19.70;99.90;;;;;;5093900;28;20362;-77
2023/07/19 09:16:29;;;;;;;7.03;1.90;;;19.60;99.90;;;;;;5091662;28;20063;-79
2023/07/19 09:19:00;;;;;;;13.50;3.22;;;19.60;99.90;;;;;;5114337;28;20036;-77
2023/07/19 09:21:39;;;;;;;6.72;2.40;;;19.60;99.90;;;;;;5103708;28;20078;-79
2023/07/19 09:24:06;;;;;;;6.30;2.38;;;19.60;99.90;;;;;;5079853;28;20069;-79
2023/07/19 09:26:52;;;;;;;5.45;2.20;;;19.50;99.90;;;;;;5101551;28;20138;-79
2023/07/19 09:29:19;;;;;;;6.22;2.40;;;19.60;99.90;;;;;;5104801;28;20044;-80
2023/07/19 09:31:56;;;;;;;5.43;2.42;;;19.60;99.90;;;;;;5114357;28;20461;-80
2023/07/19 09:34:35;;;;;;;5.10;2.53;;;19.60;99.90;;;;;;5086723;28;20122;-77
2023/07/19 09:37:02;;;;;;;6.65;2.72;;;19.50;99.90;;;;;;5073542;28;20128;-78
2023/07/19 09:39:29;;;;;;;7.28;2.10;;;19.50;99.90;;;;;;5112505;28;20039;-77
2023/07/19 09:41:55;;;;;;;3.50;2.03;;;19.40;99.90;;;;;;5096260;28;20051;-78
2023/07/19 09:44:21;;;;;;;4.63;2.00;;;19.40;99.90;;;;;;5114390;28;20051;-77
2023/07/19 09:46:48;;;;;;;7.40;2.10;;;19.50;99.90;;;;;;5116308;28;20078;-77
2023/07/19 09:49:14;;;;;;;6.88;2.10;;;19.60;99.90;;;;;;5116465;28;20067;-78
2023/07/19 09:51:42;;;;;;;6.72;2.10;;;19.60;99.90;;;;;;5117645;28;20040;-80
2023/07/19 09:54:09;;;;;;;5.85;2.10;;;19.60;99.90;;;;;;5113047;28;20389;-78
2023/07/19 09:56:36;;;;;;;6.68;1.90;;;19.50;99.90;;;;;;5118172;28;20112;-79
2023/07/19 09:59:11;;;;;;;5.18;2.20;;;19.50;99.90;;;;;;5095721;28;20056;-80
2023/07/19 10:01:37;;;;;;;5.15;1.77;;;19.40;99.90;;;;;;5121187;27;20093;-78
2023/07/19 10:04:22;;;;;;;5.43;2.50;;;19.50;99.90;;;;;;5105768;28;20035;-78
2023/07/19 10:06:49;;;;;;;4.38;1.77;;;19.90;99.90;;;;;;5092003;28;20051;-77
2023/07/19 10:09:23;;;;;;;6.38;1.85;;;20.20;99.90;;;;;;5116943;28;20398;-77
2023/07/19 10:11:49;;;;;;;5.70;2.05;;;20.30;99.90;;;;;;5093295;28;20044;-76
2023/07/19 10:14:27;;;;;;;7.95;2.40;;;20.30;99.90;;;;;;5110305;28;20042;-77
2023/07/19 10:17:00;;;;;;;5.35;1.92;;;20.10;99.90;;;;;;5101824;28;20048;-77
2023/07/19 10:19:26;;;;;;;5.40;1.63;;;19.90;99.90;;;;;;5110592;28;20040;-79
2023/07/19 10:22:03;;;;;;;5.32;2.10;;;19.90;99.90;;;;;;5108641;28;20039;-77
2023/07/19 10:24:30;;;;;;;5.88;1.75;;;19.90;99.90;;;;;;5108600;28;20032;-77
2023/07/19 10:26:56;;;;;;;5.22;2.35;;;19.90;99.90;;;;;;5093561;28;20410;-74
2023/07/19 10:29:24;;;;;;;4.40;1.50;;;20.00;99.90;;;;;;5110815;28;20168;-77
2023/07/19 10:31:50;;;;;;;3.88;1.80;;;20.00;99.90;;;;;;5091601;28;20094;-75
2023/07/19 10:34:27;;;;;;;5.82;1.88;;;20.20;99.90;;;;;;5112156;28;20498;-77
2023/07/19 10:36:52;;;;;;;4.95;2.33;;;20.40;99.90;;;;;;5105523;28;20130;-78
2023/07/19 10:39:18;;;;;;;2.65;1.45;;;20.50;99.90;;;;;;5104828;28;20127;-76
2023/07/19 10:41:49;;;;;;;4.10;1.50;;;20.30;99.90;;;;;;5105516;28;20043;-77
2023/07/19 10:44:15;;;;;;;6.55;1.52;;;20.10;99.90;;;;;;5065928;28;20413;-77
2023/07/19 10:46:42;;;;;;;4.43;2.00;;;20.00;99.90;;;;;;5103617;28;20066;-78
2023/07/19 10:49:08;;;;;;;4.07;1.57;;;19.90;99.90;;;;;;5101766;28;20516;-77
2023/07/19 10:51:35;;;;;;;5.60;1.63;;;20.00;99.90;;;;;;5083702;28;20023;-76
2023/07/19 10:54:01;;;;;;;6.43;1.60;;;20.30;99.90;;;;;;5090194;28;20048;-76
2023/07/19 10:56:30;;;;;;;5.63;1.45;;;20.50;99.90;;;;;;5092059;28;20073;-78
2023/07/19 10:58:59;;;;;;;3.47;1.58;;;20.80;99.90;;;;;;5110479;28;20039;-77
2023/07/19 11:01:28;;;;;;;4.65;1.55;;;20.80;99.90;;;;;;5108548;28;20051;-77
2023/07/19 11:03:54;;;;;;;4.28;1.55;;;20.70;99.90;;;;;;5092184;28;20035;-77
2023/07/19 11:06:20;;;;;;;4.00;1.65;;;21.00;99.90;;;;;;5084862;28;20097;-75
2023/07/19 11:08:46;;;;;;;6.25;2.00;;;21.20;99.90;;;;;;5088165;28;20051;-76
2023/07/19 11:11:13;;;;;;;5.72;2.03;;;21.20;99.90;;;;;;5091647;28;20412;-75
2023/07/19 11:13:39;;;;;;;2.08;1.23;;;21.20;99.90;;;;;;5111446;28;21209;-77
2023/07/19 11:16:07;;;;;;;5.38;1.70;;;21.00;99.90;;;;;;5110713;28;20031;-78
2023/07/19 11:18:38;;;;;;;2.78;1.38;;;21.00;99.90;;;;;;5077407;28;20065;-78
2023/07/19 11:21:04;;;;;;;5.88;1.95;;;21.00;99.90;;;;;;5111188;28;20027;-79
2023/07/19 11:23:30;;;;;;;2.85;1.30;;;21.20;99.90;;;;;;5113219;28;20047;-77
2023/07/19 11:26:07;;;;;;;3.55;1.33;;;21.30;99.90;;;;;;5104115;28;20410;-77
2023/07/19 11:28:58;;;;;;;2.30;1.15;;;21.20;99.90;;;;;;5100899;28;20043;-78
2023/07/19 11:31:34;;;;;;;2.47;1.25;;;21.20;99.90;;;;;;5101037;28;20478;-79
2023/07/19 11:34:10;;;;;;;5.60;1.55;;;21.20;99.90;;;;;;5108678;28;20067;-78
2023/07/19 11:36:40;;;;;;;2.10;1.20;;;21.40;99.90;;;;;;5107090;28;20035;-77
2023/07/19 11:39:14;;;;;;;3.50;1.45;;;21.60;99.90;;;;;;5101626;28;20790;-78
2023/07/19 11:41:41;;;;;;;4.38;1.40;;;21.90;99.90;;;;;;5112340;28;20051;-78
2023/07/19 11:44:22;;;;;;;2.55;1.30;;;22.20;99.30;;;;;;5112221;28;20046;-77
2023/07/19 11:46:48;;;;;;;2.28;1.33;;;22.30;99.70;;;;;;5112723;28;20046;-78
2023/07/19 11:49:14;;;;;;;2.85;1.05;;;22.40;99.60;;;;;;5113749;28;20374;-76
2023/07/19 11:51:40;;;;;;;2.17;1.40;;;22.30;99.00;;;;;;5115712;28;20085;-75
2023/07/19 11:54:06;;;;;;;4.35;1.23;;;22.10;98.70;;;;;;5106686;28;20036;-77
2023/07/19 11:56:34;;;;;;;4.10;1.38;;;21.90;98.80;;;;;;5114049;28;20127;-77
2023/07/19 11:59:00;;;;;;;5.93;1.40;;;21.80;99.50;;;;;;5097096;28;20040;-76
2023/07/19 12:01:26;;;;;;;8.15;1.80;;;21.70;99.30;;;;;;5115636;28;20085;-78
2023/07/19 12:03:52;;;;;;;4.63;1.50;;;21.80;99.70;;;;;;5112019;28;20043;-76
2023/07/19 12:06:18;;;;;;;4.38;1.40;;;21.90;99.20;;;;;;5059868;28;20047;-77
2023/07/19 12:08:44;;;;;;;4.07;1.23;;;22.00;98.70;;;;;;5100538;28;20073;-76
2023/07/19 12:11:10;;;;;;;3.78;1.30;;;22.00;98.90;;;;;;5095743;28;20417;-77
2023/07/19 12:13:36;;;;;;;6.28;1.65;;;21.90;98.50;;;;;;5112043;28;20043;-77
2023/07/19 12:16:03;;;;;;;2.35;1.20;;;21.70;98.10;;;;;;5103739;28;20035;-76
2023/07/19 12:18:29;;;;;;;4.00;1.30;;;21.50;98.90;;;;;;5117904;28;20054;-78
2023/07/19 12:20:55;;;;;;;1.98;1.30;;;21.50;98.60;;;;;;5116916;28;20531;-76
2023/07/19 12:23:24;;;;;;;2.13;0.93;;;21.70;99.20;;;;;;5098568;28;20054;-77
2023/07/19 12:25:50;;;;;;;4.05;1.38;;;21.70;98.30;;;;;;5093955;28;20123;-76
2023/07/19 12:28:16;;;;;;;4.70;1.30;;;21.80;98.10;;;;;;5106537;28;20123;-77
2023/07/19 12:30:42;;;;;;;2.25;1.33;;;21.90;97.80;;;;;;5109776;28;20037;-77
2023/07/19 12:33:08;;;;;;;4.15;1.40;;;21.80;97.40;;;;;;5106692;28;20032;-76
2023/07/19 12:35:36;;;;;;;4.63;1.17;;;21.80;98.10;;;;;;5113382;28;20046;-77
2023/07/19 12:38:01;;;;;;;3.40;1.58;;;21.90;97.50;;;;;;5081496;28;20051;-76
2023/07/19 12:40:27;;;;;;;2.65;1.40;;;21.80;97.70;;;;;;5104137;28;20028;-76
2023/07/19 12:42:53;;;;;;;2.28;1.05;;;21.50;97.80;;;;;;5121816;28;20046;-78
2023/07/19 12:45:19;;;;;;;2.33;1.33;;;21.50;98.20;;;;;;5117865;28;20067;-75